sensor_id;sensor_type;location;lat;lon;timestamp;P1;durP1;ratioP1;P2;durP2;ratioP2
9218;SDS011;4644;48.858;9.184;2022-11-21T00:00:58;1.80;;;0.70;;
9218;SDS011;4644;48.858;9.184;2022-11-21T00:03:25;0.93;;;0.70;;
9218;SDS011;4644;48.858;9.184;2022-11-21T00:05:52;0.90;;;0.80;;
9218;SDS011;4644;48.858;9.184;2022-11-21T00:08:20;0.63;;;0.63;;
9218;SDS011;4644;48.858;9.184;2022-11-21T00:10:47;2.63;;;0.67;;
9218;SDS011;4644;48.858;9.184;2022-11-21T00:13:16;0.60;;;0.60;;
9218;SDS011;4644;48.858;9.184;2022-11-21T00:15:45;0.60;;;0.60;;
9218;SDS011;4644;48.858;9.184;2022-11-21T00:18:13;0.80;;;0.60;;
9218;SDS011;4644;48.858;9.184;2022-11-21T00:20:40;0.60;;;0.60;;
9218;SDS011;4644;48.858;9.184;2022-11-21T00:23:08;2.20;;;0.60;;
9218;SDS011;4644;48.858;9.184;2022-11-21T00:25:36;1.17;;;0.50;;
9218;SDS011;4644;48.858;9.184;2022-11-21T00:28:04;1.00;;;0.77;;
9218;SDS011;4644;48.858;9.184;2022-11-21T00:30:32;1.57;;;0.70;;
9218;SDS011;4644;48.858;9.184;2022-11-21T00:32:59;1.37;;;0.50;;
9218;SDS011;4644;48.858;9.184;2022-11-21T00:35:26;0.93;;;0.70;;
9218;SDS011;4644;48.858;9.184;2022-11-21T00:37:53;0.47;;;0.47;;
9218;SDS011;4644;48.858;9.184;2022-11-21T00:40:20;1.07;;;0.60;;
9218;SDS011;4644;48.858;9.184;2022-11-21T00:42:47;0.50;;;0.50;;
9218;SDS011;4644;48.858;9.184;2022-11-21T00:45:14;1.10;;;0.60;;
9218;SDS011;4644;48.858;9.184;2022-11-21T00:47:43;1.80;;;0.90;;
9218;SDS011;4644;48.858;9.184;2022-11-21T00:50:10;0.50;;;0.50;;
9218;SDS011;4644;48.858;9.184;2022-11-21T00:52:37;0.40;;;0.40;;
9218;SDS011;4644;48.858;9.184;2022-11-21T00:55:04;0.50;;;0.50;;
9218;SDS011;4644;48.858;9.184;2022-11-21T00:57:31;0.60;;;0.60;;
9218;SDS011;4644;48.858;9.184;2022-11-21T00:59:58;2.83;;;0.63;;
9218;SDS011;4644;48.858;9.184;2022-11-21T01:02:25;0.80;;;0.60;;
9218;SDS011;4644;48.858;9.184;2022-11-21T01:04:54;2.63;;;0.60;;
9218;SDS011;4644;48.858;9.184;2022-11-21T01:07:20;1.03;;;0.50;;
9218;SDS011;4644;48.858;9.184;2022-11-21T01:09:47;0.67;;;0.50;;
9218;SDS011;4644;48.858;9.184;2022-11-21T01:12:14;1.67;;;0.70;;
9218;SDS011;4644;48.858;9.184;2022-11-21T01:14:41;0.63;;;0.60;;
9218;SDS011;4644;48.858;9.184;2022-11-21T01:17:08;0.50;;;0.50;;
9218;SDS011;4644;48.858;9.184;2022-11-21T01:19:35;0.50;;;0.50;;
9218;SDS011;4644;48.858;9.184;2022-11-21T01:22:04;1.13;;;0.70;;
9218;SDS011;4644;48.858;9.184;2022-11-21T01:24:31;0.90;;;0.70;;
9218;SDS011;4644;48.858;9.184;2022-11-21T01:26:57;0.80;;;0.70;;
9218;SDS011;4644;48.858;9.184;2022-11-21T01:29:25;0.50;;;0.50;;
9218;SDS011;4644;48.858;9.184;2022-11-21T01:31:53;1.90;;;1.10;;
9218;SDS011;4644;48.858;9.184;2022-11-21T01:34:20;2.13;;;0.70;;
9218;SDS011;4644;48.858;9.184;2022-11-21T01:36:47;0.90;;;0.90;;
9218;SDS011;4644;48.858;9.184;2022-11-21T01:39:15;2.27;;;1.00;;
9218;SDS011;4644;48.858;9.184;2022-11-21T01:41:43;3.03;;;1.00;;
9218;SDS011;4644;48.858;9.184;2022-11-21T01:44:14;1.60;;;0.73;;
9218;SDS011;4644;48.858;9.184;2022-11-21T01:46:44;1.17;;;0.70;;
9218;SDS011;4644;48.858;9.184;2022-11-21T01:49:12;2.00;;;0.90;;
9218;SDS011;4644;48.858;9.184;2022-11-21T01:51:43;3.17;;;0.93;;
9218;SDS011;4644;48.858;9.184;2022-11-21T01:54:17;1.50;;;0.90;;
9218;SDS011;4644;48.858;9.184;2022-11-21T01:56:49;0.70;;;0.70;;
9218;SDS011;4644;48.858;9.184;2022-11-21T01:59:22;1.07;;;0.80;;
9218;SDS011;4644;48.858;9.184;2022-11-21T02:01:52;3.87;;;0.80;;
9218;SDS011;4644;48.858;9.184;2022-11-21T02:04:22;1.90;;;0.70;;
9218;SDS011;4644;48.858;9.184;2022-11-21T02:06:53;2.10;;;0.77;;
9218;SDS011;4644;48.858;9.184;2022-11-21T02:09:22;0.80;;;0.70;;
9218;SDS011;4644;48.858;9.184;2022-11-21T02:11:51;0.60;;;0.50;;
9218;SDS011;4644;48.858;9.184;2022-11-21T02:14:21;1.43;;;0.80;;
9218;SDS011;4644;48.858;9.184;2022-11-21T02:16:49;2.43;;;1.07;;
9218;SDS011;4644;48.858;9.184;2022-11-21T02:19:19;1.30;;;0.93;;
9218;SDS011;4644;48.858;9.184;2022-11-21T02:21:52;1.73;;;0.80;;
9218;SDS011;4644;48.858;9.184;2022-11-21T02:24:28;3.60;;;0.80;;
9218;SDS011;4644;48.858;9.184;2022-11-21T02:27:03;1.03;;;0.77;;
9218;SDS011;4644;48.858;9.184;2022-11-21T02:29:30;2.77;;;0.93;;
9218;SDS011;4644;48.858;9.184;2022-11-21T02:31:58;1.67;;;0.70;;
9218;SDS011;4644;48.858;9.184;2022-11-21T02:34:29;1.47;;;0.87;;
9218;SDS011;4644;48.858;9.184;2022-11-21T02:36:56;0.70;;;0.70;;
9218;SDS011;4644;48.858;9.184;2022-11-21T02:39:25;0.77;;;0.70;;
9218;SDS011;4644;48.858;9.184;2022-11-21T02:41:56;1.70;;;0.60;;
9218;SDS011;4644;48.858;9.184;2022-11-21T02:44:34;1.47;;;0.80;;
9218;SDS011;4644;48.858;9.184;2022-11-21T02:47:08;0.70;;;0.70;;
9218;SDS011;4644;48.858;9.184;2022-11-21T02:49:37;0.63;;;0.63;;
9218;SDS011;4644;48.858;9.184;2022-11-21T02:52:07;1.23;;;1.17;;
9218;SDS011;4644;48.858;9.184;2022-11-21T02:54:34;0.83;;;0.70;;
9218;SDS011;4644;48.858;9.184;2022-11-21T02:57:01;0.77;;;0.77;;
9218;SDS011;4644;48.858;9.184;2022-11-21T02:59:28;0.50;;;0.50;;
9218;SDS011;4644;48.858;9.184;2022-11-21T03:01:56;0.67;;;0.67;;
9218;SDS011;4644;48.858;9.184;2022-11-21T03:04:25;0.77;;;0.50;;
9218;SDS011;4644;48.858;9.184;2022-11-21T03:06:52;0.60;;;0.60;;
9218;SDS011;4644;48.858;9.184;2022-11-21T03:09:19;1.30;;;0.83;;
9218;SDS011;4644;48.858;9.184;2022-11-21T03:11:46;0.60;;;0.60;;
9218;SDS011;4644;48.858;9.184;2022-11-21T03:14:14;1.90;;;0.53;;
9218;SDS011;4644;48.858;9.184;2022-11-21T03:16:41;0.93;;;0.40;;
9218;SDS011;4644;48.858;9.184;2022-11-21T03:19:09;1.23;;;0.70;;
9218;SDS011;4644;48.858;9.184;2022-11-21T03:21:36;0.53;;;0.53;;
9218;SDS011;4644;48.858;9.184;2022-11-21T03:24:03;0.50;;;0.50;;
9218;SDS011;4644;48.858;9.184;2022-11-21T03:26:31;0.40;;;0.40;;
9218;SDS011;4644;48.858;9.184;2022-11-21T03:28:58;0.70;;;0.70;;
9218;SDS011;4644;48.858;9.184;2022-11-21T03:31:25;0.50;;;0.50;;
9218;SDS011;4644;48.858;9.184;2022-11-21T03:33:52;0.50;;;0.50;;
9218;SDS011;4644;48.858;9.184;2022-11-21T03:36:21;0.50;;;0.50;;
9218;SDS011;4644;48.858;9.184;2022-11-21T03:38:48;2.90;;;0.60;;
9218;SDS011;4644;48.858;9.184;2022-11-21T03:41:15;0.70;;;0.70;;
9218;SDS011;4644;48.858;9.184;2022-11-21T03:43:59;0.50;;;0.50;;
9218;SDS011;4644;48.858;9.184;2022-11-21T03:46:27;0.50;;;0.50;;
9218;SDS011;4644;48.858;9.184;2022-11-21T03:48:55;0.80;;;0.50;;
9218;SDS011;4644;48.858;9.184;2022-11-21T03:51:24;0.77;;;0.77;;
9218;SDS011;4644;48.858;9.184;2022-11-21T03:53:51;0.40;;;0.40;;
9218;SDS011;4644;48.858;9.184;2022-11-21T03:56:18;0.70;;;0.70;;
9218;SDS011;4644;48.858;9.184;2022-11-21T03:58:45;1.53;;;0.60;;
9218;SDS011;4644;48.858;9.184;2022-11-21T04:01:13;0.53;;;0.53;;
9218;SDS011;4644;48.858;9.184;2022-11-21T04:03:46;0.87;;;0.60;;
9218;SDS011;4644;48.858;9.184;2022-11-21T04:06:14;0.83;;;0.50;;
9218;SDS011;4644;48.858;9.184;2022-11-21T04:08:44;0.50;;;0.50;;
9218;SDS011;4644;48.858;9.184;2022-11-21T04:11:11;0.50;;;0.50;;
9218;SDS011;4644;48.858;9.184;2022-11-21T04:13:38;0.50;;;0.50;;
9218;SDS011;4644;48.858;9.184;2022-11-21T04:16:05;0.60;;;0.60;;
9218;SDS011;4644;48.858;9.184;2022-11-21T04:18:33;0.70;;;0.70;;
9218;SDS011;4644;48.858;9.184;2022-11-21T04:21:01;0.60;;;0.60;;
9218;SDS011;4644;48.858;9.184;2022-11-21T04:23:29;0.70;;;0.70;;
9218;SDS011;4644;48.858;9.184;2022-11-21T04:26:00;1.60;;;0.80;;
9218;SDS011;4644;48.858;9.184;2022-11-21T04:28:27;1.57;;;0.60;;
9218;SDS011;4644;48.858;9.184;2022-11-21T04:30:54;0.80;;;0.80;;
9218;SDS011;4644;48.858;9.184;2022-11-21T04:33:21;0.60;;;0.50;;
9218;SDS011;4644;48.858;9.184;2022-11-21T04:35:48;0.50;;;0.50;;
9218;SDS011;4644;48.858;9.184;2022-11-21T04:38:15;0.57;;;0.57;;
9218;SDS011;4644;48.858;9.184;2022-11-21T04:40:42;0.50;;;0.50;;
9218;SDS011;4644;48.858;9.184;2022-11-21T04:43:11;0.70;;;0.60;;
9218;SDS011;4644;48.858;9.184;2022-11-21T04:45:37;0.50;;;0.50;;
9218;SDS011;4644;48.858;9.184;2022-11-21T04:48:05;0.97;;;0.60;;
9218;SDS011;4644;48.858;9.184;2022-11-21T04:50:32;1.33;;;0.50;;
9218;SDS011;4644;48.858;9.184;2022-11-21T04:52:59;1.00;;;0.70;;
9218;SDS011;4644;48.858;9.184;2022-11-21T04:55:26;0.90;;;0.70;;
9218;SDS011;4644;48.858;9.184;2022-11-21T04:57:55;0.70;;;0.70;;
9218;SDS011;4644;48.858;9.184;2022-11-21T05:00:24;0.60;;;0.60;;
9218;SDS011;4644;48.858;9.184;2022-11-21T05:02:51;0.70;;;0.70;;
9218;SDS011;4644;48.858;9.184;2022-11-21T05:05:18;0.97;;;0.60;;
9218;SDS011;4644;48.858;9.184;2022-11-21T05:07:45;1.07;;;0.77;;
9218;SDS011;4644;48.858;9.184;2022-11-21T05:10:12;0.60;;;0.60;;
9218;SDS011;4644;48.858;9.184;2022-11-21T05:12:39;0.60;;;0.60;;
9218;SDS011;4644;48.858;9.184;2022-11-21T05:15:25;1.03;;;0.73;;
9218;SDS011;4644;48.858;9.184;2022-11-21T05:17:52;1.67;;;0.70;;
9218;SDS011;4644;48.858;9.184;2022-11-21T05:20:19;1.43;;;0.70;;
9218;SDS011;4644;48.858;9.184;2022-11-21T05:22:49;1.17;;;0.93;;
9218;SDS011;4644;48.858;9.184;2022-11-21T05:25:17;1.00;;;0.90;;
9218;SDS011;4644;48.858;9.184;2022-11-21T05:27:44;2.00;;;0.83;;
9218;SDS011;4644;48.858;9.184;2022-11-21T05:30:11;0.90;;;0.80;;
9218;SDS011;4644;48.858;9.184;2022-11-21T05:32:39;3.57;;;0.90;;
9218;SDS011;4644;48.858;9.184;2022-11-21T05:35:08;3.33;;;1.07;;
9218;SDS011;4644;48.858;9.184;2022-11-21T05:37:35;2.57;;;1.10;;
9218;SDS011;4644;48.858;9.184;2022-11-21T05:40:02;2.20;;;0.97;;
9218;SDS011;4644;48.858;9.184;2022-11-21T05:42:30;2.13;;;1.00;;
9218;SDS011;4644;48.858;9.184;2022-11-21T05:45:14;2.03;;;1.10;;
9218;SDS011;4644;48.858;9.184;2022-11-21T05:47:43;1.10;;;1.00;;
9218;SDS011;4644;48.858;9.184;2022-11-21T05:50:10;2.10;;;1.07;;
9218;SDS011;4644;48.858;9.184;2022-11-21T05:52:37;3.33;;;1.40;;
9218;SDS011;4644;48.858;9.184;2022-11-21T05:55:04;4.43;;;1.30;;
9218;SDS011;4644;48.858;9.184;2022-11-21T05:57:33;1.50;;;1.33;;
9218;SDS011;4644;48.858;9.184;2022-11-21T06:00:00;2.47;;;1.13;;
9218;SDS011;4644;48.858;9.184;2022-11-21T06:02:28;4.07;;;1.57;;
9218;SDS011;4644;48.858;9.184;2022-11-21T06:05:14;1.87;;;1.30;;
9218;SDS011;4644;48.858;9.184;2022-11-21T06:07:41;5.53;;;1.50;;
9218;SDS011;4644;48.858;9.184;2022-11-21T06:10:08;3.57;;;1.47;;
9218;SDS011;4644;48.858;9.184;2022-11-21T06:12:35;2.77;;;1.50;;
9218;SDS011;4644;48.858;9.184;2022-11-21T06:15:02;5.23;;;1.60;;
9218;SDS011;4644;48.858;9.184;2022-11-21T06:17:29;4.60;;;1.40;;
9218;SDS011;4644;48.858;9.184;2022-11-21T06:19:57;2.60;;;1.30;;
9218;SDS011;4644;48.858;9.184;2022-11-21T06:22:25;3.67;;;1.57;;
9218;SDS011;4644;48.858;9.184;2022-11-21T06:24:52;1.97;;;1.40;;
9218;SDS011;4644;48.858;9.184;2022-11-21T06:27:19;5.17;;;1.43;;
9218;SDS011;4644;48.858;9.184;2022-11-21T06:29:46;4.03;;;1.43;;
9218;SDS011;4644;48.858;9.184;2022-11-21T06:32:13;2.57;;;1.17;;
9218;SDS011;4644;48.858;9.184;2022-11-21T06:34:40;5.00;;;1.50;;
9218;SDS011;4644;48.858;9.184;2022-11-21T06:37:07;4.20;;;1.20;;
9218;SDS011;4644;48.858;9.184;2022-11-21T06:39:36;2.37;;;1.20;;
9218;SDS011;4644;48.858;9.184;2022-11-21T06:42:03;5.80;;;1.70;;
9218;SDS011;4644;48.858;9.184;2022-11-21T06:44:32;2.03;;;1.40;;
9218;SDS011;4644;48.858;9.184;2022-11-21T06:46:59;3.77;;;1.50;;
9218;SDS011;4644;48.858;9.184;2022-11-21T06:49:26;4.00;;;1.20;;
9218;SDS011;4644;48.858;9.184;2022-11-21T06:51:56;3.67;;;1.40;;
9218;SDS011;4644;48.858;9.184;2022-11-21T06:54:23;3.70;;;1.30;;
9218;SDS011;4644;48.858;9.184;2022-11-21T06:56:52;1.60;;;1.27;;
9218;SDS011;4644;48.858;9.184;2022-11-21T06:59:19;1.50;;;1.40;;
9218;SDS011;4644;48.858;9.184;2022-11-21T07:01:46;3.40;;;2.00;;
9218;SDS011;4644;48.858;9.184;2022-11-21T07:04:13;3.00;;;1.43;;
9218;SDS011;4644;48.858;9.184;2022-11-21T07:06:40;2.93;;;1.70;;
9218;SDS011;4644;48.858;9.184;2022-11-21T07:09:07;5.43;;;1.43;;
9218;SDS011;4644;48.858;9.184;2022-11-21T07:11:34;2.53;;;1.40;;
9218;SDS011;4644;48.858;9.184;2022-11-21T07:14:03;2.13;;;1.60;;
9218;SDS011;4644;48.858;9.184;2022-11-21T07:16:29;3.60;;;1.30;;
9218;SDS011;4644;48.858;9.184;2022-11-21T07:18:56;5.83;;;1.90;;
9218;SDS011;4644;48.858;9.184;2022-11-21T07:21:24;6.63;;;2.37;;
9218;SDS011;4644;48.858;9.184;2022-11-21T07:23:54;3.13;;;1.67;;
9218;SDS011;4644;48.858;9.184;2022-11-21T07:26:21;4.03;;;1.90;;
9218;SDS011;4644;48.858;9.184;2022-11-21T07:28:48;5.63;;;2.20;;
9218;SDS011;4644;48.858;9.184;2022-11-21T07:31:16;4.53;;;1.70;;
9218;SDS011;4644;48.858;9.184;2022-11-21T07:33:43;2.40;;;1.60;;
9218;SDS011;4644;48.858;9.184;2022-11-21T07:36:11;4.03;;;1.47;;
9218;SDS011;4644;48.858;9.184;2022-11-21T07:38:38;2.50;;;1.70;;
9218;SDS011;4644;48.858;9.184;2022-11-21T07:41:06;2.00;;;1.47;;
9218;SDS011;4644;48.858;9.184;2022-11-21T07:43:33;2.30;;;1.50;;
9218;SDS011;4644;48.858;9.184;2022-11-21T07:46:00;3.00;;;2.00;;
9218;SDS011;4644;48.858;9.184;2022-11-21T07:48:28;3.43;;;2.20;;
9218;SDS011;4644;48.858;9.184;2022-11-21T07:50:55;5.50;;;2.57;;
9218;SDS011;4644;48.858;9.184;2022-11-21T07:53:22;3.90;;;2.20;;
9218;SDS011;4644;48.858;9.184;2022-11-21T07:55:49;2.93;;;2.53;;
9218;SDS011;4644;48.858;9.184;2022-11-21T07:58:16;6.33;;;2.70;;
9218;SDS011;4644;48.858;9.184;2022-11-21T08:00:43;2.30;;;1.97;;
9218;SDS011;4644;48.858;9.184;2022-11-21T08:03:11;2.63;;;1.73;;
9218;SDS011;4644;48.858;9.184;2022-11-21T08:05:39;3.23;;;1.63;;
9218;SDS011;4644;48.858;9.184;2022-11-21T08:08:07;4.43;;;2.33;;
9218;SDS011;4644;48.858;9.184;2022-11-21T08:10:35;2.53;;;1.63;;
9218;SDS011;4644;48.858;9.184;2022-11-21T08:13:03;1.77;;;1.67;;
9218;SDS011;4644;48.858;9.184;2022-11-21T08:15:31;1.67;;;1.53;;
9218;SDS011;4644;48.858;9.184;2022-11-21T08:17:58;5.37;;;1.70;;
9218;SDS011;4644;48.858;9.184;2022-11-21T08:20:34;2.93;;;1.70;;
9218;SDS011;4644;48.858;9.184;2022-11-21T08:23:04;6.13;;;1.90;;
9218;SDS011;4644;48.858;9.184;2022-11-21T08:25:31;5.33;;;2.27;;
9218;SDS011;4644;48.858;9.184;2022-11-21T08:27:58;3.13;;;1.83;;
9218;SDS011;4644;48.858;9.184;2022-11-21T08:30:26;2.60;;;1.53;;
9218;SDS011;4644;48.858;9.184;2022-11-21T08:32:56;9.07;;;2.30;;
9218;SDS011;4644;48.858;9.184;2022-11-21T08:35:24;4.60;;;1.80;;
9218;SDS011;4644;48.858;9.184;2022-11-21T08:37:58;4.87;;;1.50;;
9218;SDS011;4644;48.858;9.184;2022-11-21T08:40:28;4.00;;;1.47;;
9218;SDS011;4644;48.858;9.184;2022-11-21T08:42:58;4.43;;;1.30;;
9218;SDS011;4644;48.858;9.184;2022-11-21T08:45:27;4.63;;;1.50;;
9218;SDS011;4644;48.858;9.184;2022-11-21T08:47:57;3.40;;;1.40;;
9218;SDS011;4644;48.858;9.184;2022-11-21T08:50:24;2.67;;;1.67;;
9218;SDS011;4644;48.858;9.184;2022-11-21T08:52:52;9.73;;;1.60;;
9218;SDS011;4644;48.858;9.184;2022-11-21T08:55:19;4.50;;;1.43;;
9218;SDS011;4644;48.858;9.184;2022-11-21T08:57:48;3.53;;;1.40;;
9218;SDS011;4644;48.858;9.184;2022-11-21T09:00:15;4.17;;;1.30;;
9218;SDS011;4644;48.858;9.184;2022-11-21T09:02:45;6.53;;;1.07;;
9218;SDS011;4644;48.858;9.184;2022-11-21T09:05:12;3.80;;;1.23;;
9218;SDS011;4644;48.858;9.184;2022-11-21T09:07:39;3.77;;;1.30;;
9218;SDS011;4644;48.858;9.184;2022-11-21T09:10:07;2.97;;;0.93;;
9218;SDS011;4644;48.858;9.184;2022-11-21T09:12:35;5.27;;;1.47;;
9218;SDS011;4644;48.858;9.184;2022-11-21T09:15:08;3.67;;;1.20;;
9218;SDS011;4644;48.858;9.184;2022-11-21T09:17:53;4.90;;;1.70;;
9218;SDS011;4644;48.858;9.184;2022-11-21T09:20:29;2.70;;;1.30;;
9218;SDS011;4644;48.858;9.184;2022-11-21T09:22:56;4.00;;;1.40;;
9218;SDS011;4644;48.858;9.184;2022-11-21T09:25:23;3.33;;;1.40;;
9218;SDS011;4644;48.858;9.184;2022-11-21T09:27:50;4.50;;;1.70;;
9218;SDS011;4644;48.858;9.184;2022-11-21T09:30:18;3.30;;;1.30;;
9218;SDS011;4644;48.858;9.184;2022-11-21T09:32:45;4.50;;;1.10;;
9218;SDS011;4644;48.858;9.184;2022-11-21T09:35:12;4.80;;;1.17;;
9218;SDS011;4644;48.858;9.184;2022-11-21T09:37:39;5.10;;;1.63;;
9218;SDS011;4644;48.858;9.184;2022-11-21T09:40:08;4.33;;;1.57;;
9218;SDS011;4644;48.858;9.184;2022-11-21T09:42:47;6.67;;;1.50;;
9218;SDS011;4644;48.858;9.184;2022-11-21T09:45:27;5.13;;;1.40;;
9218;SDS011;4644;48.858;9.184;2022-11-21T09:47:58;3.00;;;1.27;;
9218;SDS011;4644;48.858;9.184;2022-11-21T09:50:28;4.63;;;1.63;;
9218;SDS011;4644;48.858;9.184;2022-11-21T09:52:59;6.17;;;1.77;;
9218;SDS011;4644;48.858;9.184;2022-11-21T09:55:35;3.90;;;1.30;;
9218;SDS011;4644;48.858;9.184;2022-11-21T09:58:10;2.33;;;1.33;;
9218;SDS011;4644;48.858;9.184;2022-11-21T10:00:46;4.13;;;1.40;;
9218;SDS011;4644;48.858;9.184;2022-11-21T10:03:16;8.83;;;1.67;;
9218;SDS011;4644;48.858;9.184;2022-11-21T10:05:46;4.80;;;1.47;;
9218;SDS011;4644;48.858;9.184;2022-11-21T10:08:18;8.17;;;3.03;;
9218;SDS011;4644;48.858;9.184;2022-11-21T10:10:55;4.30;;;2.10;;
9218;SDS011;4644;48.858;9.184;2022-11-21T10:13:33;3.40;;;1.43;;
9218;SDS011;4644;48.858;9.184;2022-11-21T10:16:15;3.83;;;1.40;;
9218;SDS011;4644;48.858;9.184;2022-11-21T10:18:53;1.87;;;1.07;;
9218;SDS011;4644;48.858;9.184;2022-11-21T10:21:42;3.27;;;1.33;;
9218;SDS011;4644;48.858;9.184;2022-11-21T10:24:32;3.97;;;1.70;;
9218;SDS011;4644;48.858;9.184;2022-11-21T10:27:06;3.53;;;1.80;;
9218;SDS011;4644;48.858;9.184;2022-11-21T10:29:45;2.30;;;1.57;;
9218;SDS011;4644;48.858;9.184;2022-11-21T10:32:25;7.40;;;4.27;;
9218;SDS011;4644;48.858;9.184;2022-11-21T10:34:57;1.50;;;1.13;;
9218;SDS011;4644;48.858;9.184;2022-11-21T10:37:31;7.60;;;1.47;;
9218;SDS011;4644;48.858;9.184;2022-11-21T10:40:02;2.63;;;1.20;;
9218;SDS011;4644;48.858;9.184;2022-11-21T10:42:43;7.70;;;1.60;;
9218;SDS011;4644;48.858;9.184;2022-11-21T10:45:15;2.97;;;1.23;;
9218;SDS011;4644;48.858;9.184;2022-11-21T10:47:43;2.83;;;1.47;;
9218;SDS011;4644;48.858;9.184;2022-11-21T10:53:16;6.07;;;1.37;;
9218;SDS011;4644;48.858;9.184;2022-11-21T10:56:05;4.80;;;1.10;;
9218;SDS011;4644;48.858;9.184;2022-11-21T10:58:39;2.43;;;1.23;;
9218;SDS011;4644;48.858;9.184;2022-11-21T11:04:15;2.37;;;1.40;;
9218;SDS011;4644;48.858;9.184;2022-11-21T11:06:46;2.13;;;1.20;;
9218;SDS011;4644;48.858;9.184;2022-11-21T11:09:26;1.67;;;1.20;;
9218;SDS011;4644;48.858;9.184;2022-11-21T11:15:11;1.97;;;1.43;;
9218;SDS011;4644;48.858;9.184;2022-11-21T11:17:43;4.90;;;2.40;;
9218;SDS011;4644;48.858;9.184;2022-11-21T11:20:32;4.67;;;2.07;;
9218;SDS011;4644;48.858;9.184;2022-11-21T11:23:22;3.87;;;1.77;;
9218;SDS011;4644;48.858;9.184;2022-11-21T11:25:50;3.40;;;1.33;;
9218;SDS011;4644;48.858;9.184;2022-11-21T11:28:19;2.83;;;1.30;;
9218;SDS011;4644;48.858;9.184;2022-11-21T11:30:48;2.77;;;1.10;;
9218;SDS011;4644;48.858;9.184;2022-11-21T11:33:33;3.40;;;1.40;;
9218;SDS011;4644;48.858;9.184;2022-11-21T11:38:56;2.70;;;1.50;;
9218;SDS011;4644;48.858;9.184;2022-11-21T11:44:41;2.43;;;1.47;;
9218;SDS011;4644;48.858;9.184;2022-11-21T11:47:33;2.13;;;1.50;;
9218;SDS011;4644;48.858;9.184;2022-11-21T11:50:08;4.73;;;2.23;;
9218;SDS011;4644;48.858;9.184;2022-11-21T11:52:42;2.03;;;1.40;;
9218;SDS011;4644;48.858;9.184;2022-11-21T11:55:22;1.70;;;1.30;;
9218;SDS011;4644;48.858;9.184;2022-11-21T11:57:55;4.73;;;1.40;;
9218;SDS011;4644;48.858;9.184;2022-11-21T12:00:26;3.53;;;1.40;;
9218;SDS011;4644;48.858;9.184;2022-11-21T12:02:59;2.07;;;1.17;;
9218;SDS011;4644;48.858;9.184;2022-11-21T12:05:33;3.47;;;1.57;;
9218;SDS011;4644;48.858;9.184;2022-11-21T12:08:09;3.40;;;1.60;;
9218;SDS011;4644;48.858;9.184;2022-11-21T12:10:44;1.60;;;1.23;;
9218;SDS011;4644;48.858;9.184;2022-11-21T12:13:33;2.83;;;1.20;;
9218;SDS011;4644;48.858;9.184;2022-11-21T12:16:02;2.43;;;1.20;;
9218;SDS011;4644;48.858;9.184;2022-11-21T12:18:35;3.33;;;1.00;;
9218;SDS011;4644;48.858;9.184;2022-11-21T12:21:08;1.83;;;0.97;;
9218;SDS011;4644;48.858;9.184;2022-11-21T12:23:42;2.80;;;1.57;;
9218;SDS011;4644;48.858;9.184;2022-11-21T12:26:14;3.07;;;1.50;;
9218;SDS011;4644;48.858;9.184;2022-11-21T12:28:51;3.80;;;1.10;;
9218;SDS011;4644;48.858;9.184;2022-11-21T12:31:30;2.37;;;1.10;;
9218;SDS011;4644;48.858;9.184;2022-11-21T12:34:08;1.83;;;1.27;;
9218;SDS011;4644;48.858;9.184;2022-11-21T12:36:47;1.10;;;1.03;;
9218;SDS011;4644;48.858;9.184;2022-11-21T12:42:32;2.17;;;1.43;;
9218;SDS011;4644;48.858;9.184;2022-11-21T12:45:28;1.43;;;0.87;;
9218;SDS011;4644;48.858;9.184;2022-11-21T12:54:36;3.23;;;1.00;;
9218;SDS011;4644;48.858;9.184;2022-11-21T12:57:15;5.83;;;1.27;;
9218;SDS011;4644;48.858;9.184;2022-11-21T12:59:49;1.70;;;0.90;;
9218;SDS011;4644;48.858;9.184;2022-11-21T13:02:30;6.00;;;1.40;;
9218;SDS011;4644;48.858;9.184;2022-11-21T13:05:04;2.43;;;1.00;;
9218;SDS011;4644;48.858;9.184;2022-11-21T13:07:36;4.87;;;1.57;;
9218;SDS011;4644;48.858;9.184;2022-11-21T13:10:04;2.37;;;1.23;;
9218;SDS011;4644;48.858;9.184;2022-11-21T13:12:39;2.27;;;1.20;;
9218;SDS011;4644;48.858;9.184;2022-11-21T13:15:17;4.13;;;1.10;;
9218;SDS011;4644;48.858;9.184;2022-11-21T13:17:52;4.40;;;0.90;;
9218;SDS011;4644;48.858;9.184;2022-11-21T13:20:23;1.73;;;0.80;;
9218;SDS011;4644;48.858;9.184;2022-11-21T13:22:56;2.00;;;0.90;;
9218;SDS011;4644;48.858;9.184;2022-11-21T13:25:36;2.03;;;0.97;;
9218;SDS011;4644;48.858;9.184;2022-11-21T13:33:54;2.57;;;1.20;;
9218;SDS011;4644;48.858;9.184;2022-11-21T13:36:38;2.83;;;1.20;;
9218;SDS011;4644;48.858;9.184;2022-11-21T13:42:06;2.17;;;1.37;;
9218;SDS011;4644;48.858;9.184;2022-11-21T13:44:54;3.07;;;1.03;;
9218;SDS011;4644;48.858;9.184;2022-11-21T13:47:29;3.10;;;1.30;;
9218;SDS011;4644;48.858;9.184;2022-11-21T13:53:34;4.30;;;1.23;;
9218;SDS011;4644;48.858;9.184;2022-11-21T13:56:24;3.70;;;1.30;;
9218;SDS011;4644;48.858;9.184;2022-11-21T13:58:59;1.77;;;0.97;;
9218;SDS011;4644;48.858;9.184;2022-11-21T14:02:02;2.37;;;1.30;;
9218;SDS011;4644;48.858;9.184;2022-11-21T14:08:14;2.90;;;1.20;;
9218;SDS011;4644;48.858;9.184;2022-11-21T14:10:44;5.23;;;1.17;;
9218;SDS011;4644;48.858;9.184;2022-11-21T14:13:21;3.13;;;1.20;;
9218;SDS011;4644;48.858;9.184;2022-11-21T14:16:00;4.17;;;1.30;;
9218;SDS011;4644;48.858;9.184;2022-11-21T14:18:33;3.03;;;1.27;;
9218;SDS011;4644;48.858;9.184;2022-11-21T14:21:03;1.80;;;1.00;;
9218;SDS011;4644;48.858;9.184;2022-11-21T14:23:34;2.93;;;1.30;;
9218;SDS011;4644;48.858;9.184;2022-11-21T14:26:10;3.90;;;1.33;;
9218;SDS011;4644;48.858;9.184;2022-11-21T14:28:39;4.50;;;2.00;;
9218;SDS011;4644;48.858;9.184;2022-11-21T14:31:07;2.23;;;1.60;;
9218;SDS011;4644;48.858;9.184;2022-11-21T14:33:36;2.40;;;1.57;;
9218;SDS011;4644;48.858;9.184;2022-11-21T14:36:06;3.37;;;1.60;;
9218;SDS011;4644;48.858;9.184;2022-11-21T14:38:41;5.57;;;1.60;;
9218;SDS011;4644;48.858;9.184;2022-11-21T14:41:26;3.60;;;1.53;;
9218;SDS011;4644;48.858;9.184;2022-11-21T14:44:00;3.23;;;1.50;;
9218;SDS011;4644;48.858;9.184;2022-11-21T14:46:45;1.40;;;1.00;;
9218;SDS011;4644;48.858;9.184;2022-11-21T14:49:17;3.97;;;1.30;;
9218;SDS011;4644;48.858;9.184;2022-11-21T14:51:49;2.03;;;1.30;;
9218;SDS011;4644;48.858;9.184;2022-11-21T14:54:21;2.20;;;1.23;;
9218;SDS011;4644;48.858;9.184;2022-11-21T14:56:56;2.90;;;1.13;;
9218;SDS011;4644;48.858;9.184;2022-11-21T14:59:26;2.87;;;1.10;;
9218;SDS011;4644;48.858;9.184;2022-11-21T15:01:59;2.47;;;1.83;;
9218;SDS011;4644;48.858;9.184;2022-11-21T15:04:31;6.10;;;1.20;;
9218;SDS011;4644;48.858;9.184;2022-11-21T15:07:00;3.37;;;1.37;;
9218;SDS011;4644;48.858;9.184;2022-11-21T15:09:28;2.73;;;1.20;;
9218;SDS011;4644;48.858;9.184;2022-11-21T15:11:58;3.13;;;1.10;;
9218;SDS011;4644;48.858;9.184;2022-11-21T15:14:29;3.83;;;1.20;;
9218;SDS011;4644;48.858;9.184;2022-11-21T15:17:00;2.37;;;1.57;;
9218;SDS011;4644;48.858;9.184;2022-11-21T15:19:29;3.30;;;1.50;;
9218;SDS011;4644;48.858;9.184;2022-11-21T15:21:58;6.40;;;1.70;;
9218;SDS011;4644;48.858;9.184;2022-11-21T15:27:22;2.70;;;1.37;;
9218;SDS011;4644;48.858;9.184;2022-11-21T15:30:02;2.30;;;1.43;;
9218;SDS011;4644;48.858;9.184;2022-11-21T15:32:32;2.97;;;1.40;;
9218;SDS011;4644;48.858;9.184;2022-11-21T15:34:59;3.23;;;1.40;;
9218;SDS011;4644;48.858;9.184;2022-11-21T15:37:46;4.13;;;1.67;;
9218;SDS011;4644;48.858;9.184;2022-11-21T15:40:18;4.10;;;1.40;;
9218;SDS011;4644;48.858;9.184;2022-11-21T15:42:45;5.67;;;2.40;;
9218;SDS011;4644;48.858;9.184;2022-11-21T15:45:19;6.57;;;1.70;;
9218;SDS011;4644;48.858;9.184;2022-11-21T15:47:49;4.27;;;1.80;;
9218;SDS011;4644;48.858;9.184;2022-11-21T15:50:16;3.97;;;1.87;;
9218;SDS011;4644;48.858;9.184;2022-11-21T15:52:43;6.50;;;1.93;;
9218;SDS011;4644;48.858;9.184;2022-11-21T15:55:12;4.23;;;1.97;;
9218;SDS011;4644;48.858;9.184;2022-11-21T15:57:46;5.27;;;1.70;;
9218;SDS011;4644;48.858;9.184;2022-11-21T16:00:13;3.63;;;1.93;;
9218;SDS011;4644;48.858;9.184;2022-11-21T16:02:41;6.37;;;2.30;;
9218;SDS011;4644;48.858;9.184;2022-11-21T16:05:10;4.77;;;2.30;;
9218;SDS011;4644;48.858;9.184;2022-11-21T16:07:38;3.30;;;2.23;;
9218;SDS011;4644;48.858;9.184;2022-11-21T16:10:05;5.57;;;2.83;;
9218;SDS011;4644;48.858;9.184;2022-11-21T16:12:34;7.70;;;2.70;;
9218;SDS011;4644;48.858;9.184;2022-11-21T16:15:01;7.07;;;2.73;;
9218;SDS011;4644;48.858;9.184;2022-11-21T16:17:28;10.43;;;2.83;;
9218;SDS011;4644;48.858;9.184;2022-11-21T16:19:55;3.57;;;2.23;;